Time;durP1;ratioP1;P1;durP2;ratioP2;P2;SDS_P1;SDS_P2;PMS_P1;PMS_P2;Temp;Humidity;BMP_temperature;BMP_pressure;BME280_temperature;BME280_humidity;BME280_pressure;Samples;Min_cycle;Max_cycle;Signal;HPM_P1;HPM_P2
2024/01/29 00:03:00;;;;;;;6.30;5.70;;;;;;;5.36;54.75;100068.38;6681064;29;20242;-78
2024/01/29 00:06:22;;;;;;;7.97;5.87;;;;;;;5.55;54.35;100054.13;6680824;29;20315;-77
2024/01/29 00:09:45;;;;;;;6.33;5.10;;;;;;;5.79;54.26;100059.88;6691817;29;20239;-78
2024/01/29 00:13:06;;;;;;;5.30;4.80;;;;;;;5.69;54.05;100051.88;6706438;29;20209;-78
2024/01/29 00:16:28;;;;;;;5.63;5.10;;;;;;;5.91;53.50;100048.88;6706198;29;20278;-78
2024/01/29 00:19:50;;;;;;;5.90;5.10;;;;;;;5.93;53.31;100054.94;6706467;29;20382;-78
2024/01/29 00:23:12;;;;;;;6.73;5.23;;;;;;;5.86;53.40;100059.19;6706011;29;20234;-78
2024/01/29 00:26:34;;;;;;;6.27;5.50;;;;;;;5.88;53.26;100057.19;6705229;29;20754;-78
2024/01/29 00:29:56;;;;;;;5.47;4.77;;;;;;;5.84;53.30;100038.91;6706271;29;20234;-78
2024/01/29 00:33:18;;;;;;;7.47;5.77;;;;;;;5.88;53.14;100046.50;6705910;29;20220;-78
2024/01/29 00:36:41;;;;;;;7.37;5.27;;;;;;;5.70;53.20;100053.53;6705079;29;20420;-77
2024/01/29 00:40:04;;;;;;;6.17;5.37;;;;;;;5.73;53.77;100045.22;6706169;29;20269;-78
2024/01/29 00:43:26;;;;;;;8.20;5.87;;;;;;;5.03;55.91;100063.47;6705681;29;20238;-78
2024/01/29 00:46:47;;;;;;;7.10;6.00;;;;;;;5.46;54.98;100053.16;6705558;29;20226;-77
2024/01/29 00:50:10;;;;;;;6.87;5.63;;;;;;;5.27;54.95;100055.00;6705428;29;20380;-78
2024/01/29 00:53:33;;;;;;;6.13;5.50;;;;;;;5.46;54.90;100063.00;6706267;29;20930;-78
2024/01/29 00:56:54;;;;;;;6.30;5.33;;;;;;;5.60;54.25;100057.22;6705152;29;20209;-78
2024/01/29 01:00:17;;;;;;;5.90;5.40;;;;;;;5.37;54.44;100058.53;6705259;29;20239;-78
2024/01/29 01:03:38;;;;;;;5.80;5.20;;;;;;;5.47;54.99;100051.31;6705571;29;20250;-78
2024/01/29 01:07:00;;;;;;;6.73;6.03;;;;;;;5.38;54.90;100063.75;6704689;29;20733;-78
2024/01/29 01:10:23;;;;;;;9.53;5.93;;;;;;;5.61;54.30;100062.41;6705180;29;20866;-77
2024/01/29 01:13:44;;;;;;;6.60;6.00;;;;;;;5.53;54.53;100067.66;6705298;29;20301;-78
2024/01/29 01:17:06;;;;;;;6.57;5.63;;;;;;;5.50;54.66;100062.59;6704750;29;20790;-78
2024/01/29 01:20:27;;;;;;;5.97;5.37;;;;;;;5.49;54.82;100044.84;6704658;29;20323;-78
2024/01/29 01:23:49;;;;;;;7.57;6.17;;;;;;;5.64;54.26;100062.16;6704520;29;20829;-78
2024/01/29 01:27:16;;;;;;;6.97;5.57;;;;;;;5.63;54.59;100060.47;6703720;29;20307;-78
2024/01/29 01:30:37;;;;;;;6.40;5.80;;;;;;;5.28;54.79;100054.88;6704879;29;20274;-78
2024/01/29 01:33:59;;;;;;;6.47;5.53;;;;;;;5.32;54.75;100058.94;6704411;29;20312;-77
2024/01/29 01:37:20;;;;;;;9.17;5.77;;;;;;;5.39;54.99;100067.25;6703749;29;20273;-77
2024/01/29 01:40:42;;;;;;;6.03;5.43;;;;;;;5.14;54.70;100054.44;6712558;29;20317;-77
2024/01/29 01:44:05;;;;;;;7.13;5.33;;;;;;;5.25;55.00;100046.28;6713145;29;20237;-77
2024/01/29 01:47:27;;;;;;;7.20;6.13;;;;;;;5.46;55.24;100049.63;6703817;29;20215;-78
2024/01/29 01:50:49;;;;;;;6.60;5.63;;;;;;;5.11;55.06;100052.91;6704113;29;20610;-78
2024/01/29 01:54:11;;;;;;;6.40;5.80;;;;;;;5.20;55.37;100052.03;6703844;29;20211;-78
2024/01/29 01:57:32;;;;;;;6.87;5.80;;;;;;;5.28;55.40;100048.66;6703665;29;20696;-78
2024/01/29 02:00:56;;;;;;;8.33;6.00;;;;;;;5.51;54.70;100066.97;6703548;29;20290;-78
2024/01/29 02:04:18;;;;;;;7.20;5.60;;;;;;;5.32;54.99;100058.94;6703997;29;20366;-78
2024/01/29 02:07:39;;;;;;;8.20;6.17;;;;;;;5.02;55.60;100063.59;6691808;29;20444;-78
2024/01/29 02:11:01;;;;;;;7.00;5.73;;;;;;;5.16;55.53;100042.63;6702619;29;20261;-78
2024/01/29 02:14:23;;;;;;;7.50;6.80;;;;;;;5.42;55.60;100070.47;6703591;29;20212;-78
2024/01/29 02:17:46;;;;;;;6.60;5.80;;;;;;;5.36;55.14;100056.84;6702804;29;20645;-78
2024/01/29 02:21:07;;;;;;;8.07;6.30;;;;;;;5.57;55.04;100047.66;6703550;29;20860;-78
2024/01/29 02:24:30;;;;;;;7.57;6.13;;;;;;;5.41;55.00;100055.41;6703291;29;20307;-78
2024/01/29 02:27:52;;;;;;;8.37;5.50;;;;;;;5.31;54.92;100027.84;6701918;29;20218;-78
2024/01/29 02:31:14;;;;;;;9.07;6.33;;;;;;;5.42;55.61;100048.25;6703008;29;20401;-78
2024/01/29 02:34:35;;;;;;;7.53;6.30;;;;;;;5.08;56.16;100055.84;6703658;29;20588;-78
2024/01/29 02:37:57;;;;;;;8.20;6.97;;;;;;;5.37;55.85;100045.16;6702430;29;20288;-78
2024/01/29 02:41:19;;;;;;;8.50;6.60;;;;;;;5.20;56.54;100027.16;6703249;29;20372;-78
2024/01/29 02:44:41;;;;;;;7.53;6.73;;;;;;;5.68;55.63;100049.31;6703421;29;20698;-78
2024/01/29 02:48:02;;;;;;;9.23;7.10;;;;;;;5.45;55.65;100038.09;6702161;29;20361;-78
2024/01/29 02:51:24;;;;;;;8.23;7.30;;;;;;;5.61;55.81;100008.09;6703366;29;20311;-78
2024/01/29 02:54:45;;;;;;;7.90;7.10;;;;;;;5.79;55.47;100044.63;6703217;29;20294;-78
2024/01/29 02:58:08;;;;;;;7.83;7.10;;;;;;;5.87;55.46;100035.91;6702740;29;20302;-78
2024/01/29 03:01:30;;;;;;;8.03;7.13;;;;;;;5.99;54.94;100032.06;6702949;29;20353;-78
2024/01/29 03:04:51;;;;;;;9.57;7.27;;;;;;;6.05;54.89;100029.66;6702464;29;20290;-78
2024/01/29 03:08:13;;;;;;;8.27;7.37;;;;;;;5.80;55.71;100022.28;6676800;29;20209;-77
2024/01/29 03:11:34;;;;;;;9.03;7.50;;;;;;;5.83;55.93;100027.34;6677894;29;20283;-77
2024/01/29 03:14:58;;;;;;;10.57;8.13;;;;;;;5.97;56.02;100037.59;6677848;29;20308;-78
2024/01/29 03:18:20;;;;;;;10.27;7.53;;;;;;;5.86;55.90;100036.91;6677198;29;20329;-78
2024/01/29 03:21:41;;;;;;;9.53;7.33;;;;;;;5.90;55.88;100023.09;6677387;29;20316;-77
2024/01/29 03:25:03;;;;;;;9.77;7.73;;;;;;;5.97;55.96;100032.25;6677532;29;20612;-77
2024/01/29 03:28:24;;;;;;;11.27;7.53;;;;;;;5.91;56.02;100022.13;6686723;29;20317;-78
2024/01/29 03:31:47;;;;;;;9.73;8.07;;;;;;;5.85;56.06;100030.72;6706972;29;20241;-78
2024/01/29 03:35:09;;;;;;;8.90;8.00;;;;;;;6.00;55.87;100017.69;6707917;29;20642;-78
2024/01/29 03:38:31;;;;;;;10.23;7.80;;;;;;;5.42;56.86;100027.69;6707089;29;20656;-78
2024/01/29 03:41:52;;;;;;;9.60;7.40;;;;;;;5.16;58.06;100031.09;6707167;29;20279;-77
2024/01/29 03:45:14;;;;;;;9.97;8.07;;;;;;;5.67;56.81;100026.25;6726121;29;20650;-77
2024/01/29 03:48:36;;;;;;;9.67;8.20;;;;;;;6.09;55.90;100012.31;6732133;29;20298;-78
2024/01/29 03:51:58;;;;;;;9.87;8.10;;;;;;;6.09;55.48;100014.16;6732944;29;20305;-78
2024/01/29 03:55:19;;;;;;;9.93;7.73;;;;;;;6.16;55.31;100023.28;6716373;29;20375;-78
2024/01/29 03:58:41;;;;;;;8.43;7.60;;;;;;;6.29;54.46;100029.13;6708430;29;20296;-79
2024/01/29 04:02:03;;;;;;;10.20;7.77;;;;;;;6.23;54.46;100016.31;6715028;29;20212;-77
2024/01/29 04:05:26;;;;;;;9.03;7.83;;;;;;;6.16;54.50;100034.84;6712794;29;20323;-78
2024/01/29 04:08:47;;;;;;;9.90;7.80;;;;;;;5.97;54.50;100036.75;6707832;29;20712;-78
2024/01/29 04:12:10;;;;;;;8.30;7.10;;;;;;;5.84;54.94;100042.41;6706558;29;20294;-78
2024/01/29 04:15:31;;;;;;;9.37;8.30;;;;;;;5.82;55.08;100027.47;6681299;29;20302;-78
2024/01/29 04:18:53;;;;;;;9.17;7.83;;;;;;;5.50;54.99;100041.19;6680244;29;20316;-78
2024/01/29 04:22:16;;;;;;;9.37;7.93;;;;;;;5.30;56.08;100039.53;6680768;29;20273;-79
2024/01/29 04:25:37;;;;;;;10.50;8.50;;;;;;;5.21;56.39;100036.84;6680044;29;20237;-79
2024/01/29 04:28:59;;;;;;;8.47;7.63;;;;;;;5.44;56.30;100030.22;6683844;29;20461;-78
2024/01/29 04:32:20;;;;;;;9.27;8.07;;;;;;;5.46;56.00;100034.44;6731887;29;20310;-79
2024/01/29 04:35:42;;;;;;;10.70;8.27;;;;;;;5.55;55.51;100027.38;6731708;29;20711;-79
2024/01/29 04:39:05;;;;;;;13.77;8.70;;;;;;;5.63;55.76;100028.34;6731094;29;20864;-78
2024/01/29 04:42:26;;;;;;;9.33;7.97;;;;;;;5.89;54.99;100024.09;6731279;29;20674;-79
2024/01/29 04:45:48;;;;;;;10.37;8.40;;;;;;;6.00;54.20;100026.59;6707716;29;20304;-79
2024/01/29 04:49:09;;;;;;;8.10;7.30;;;;;;;6.06;54.20;100011.75;6679956;29;20252;-79
2024/01/29 04:52:31;;;;;;;8.53;7.10;;;;;;;5.89;53.92;100020.59;6680505;29;20713;-78
2024/01/29 04:55:54;;;;;;;9.63;7.50;;;;;;;5.36;54.78;100019.41;6679836;29;20281;-79
2024/01/29 04:59:15;;;;;;;9.97;7.80;;;;;;;5.30;55.62;100025.31;6679782;29;20329;-78
2024/01/29 05:02:37;;;;;;;10.07;7.73;;;;;;;5.75;55.28;100034.38;6698698;29;20317;-79
2024/01/29 05:05:58;;;;;;;9.40;7.50;;;;;;;5.67;55.21;100028.91;6705018;29;20324;-79
2024/01/29 05:09:20;;;;;;;8.57;7.60;;;;;;;6.00;54.25;100039.09;6704442;29;20397;-78
2024/01/29 05:12:43;;;;;;;9.27;6.87;;;;;;;6.08;54.42;100036.56;6705427;29;20248;-78
2024/01/29 05:16:06;;;;;;;8.77;7.30;;;;;;;6.20;53.63;100038.06;6705088;29;20321;-78
2024/01/29 05:19:27;;;;;;;9.50;7.00;;;;;;;6.27;53.25;100029.28;6704384;29;20225;-78
2024/01/29 05:22:49;;;;;;;7.37;6.30;;;;;;;5.98;54.17;100035.75;6705152;29;20274;-79
2024/01/29 05:26:11;;;;;;;7.90;6.60;;;;;;;6.05;53.84;100028.81;6704933;29;20379;-78
2024/01/29 05:29:34;;;;;;;8.60;7.63;;;;;;;6.36;53.31;100039.09;6704240;29;20260;-79
2024/01/29 05:32:55;;;;;;;11.07;7.77;;;;;;;6.27;53.43;100052.53;6704538;29;20258;-79
2024/01/29 05:36:17;;;;;;;8.80;7.23;;;;;;;6.55;52.94;100040.84;6704889;29;20808;-78
2024/01/29 05:39:38;;;;;;;8.00;7.20;;;;;;;6.45;53.26;100058.81;6704116;29;20368;-79
2024/01/29 05:43:00;;;;;;;8.33;7.17;;;;;;;6.65;52.23;100063.06;6704064;29;20249;-79
2024/01/29 05:46:22;;;;;;;8.13;7.40;;;;;;;6.13;53.34;100072.59;6704460;29;20245;-79
2024/01/29 05:49:44;;;;;;;8.47;7.67;;;;;;;5.73;54.60;100061.28;6703660;29;20329;-79
2024/01/29 05:53:07;;;;;;;9.23;6.93;;;;;;;6.29;53.77;100051.41;6703527;29;20221;-78
2024/01/29 05:56:28;;;;;;;8.57;7.37;;;;;;;6.35;53.97;100056.16;6703426;29;20221;-79
2024/01/29 05:59:50;;;;;;;8.73;7.70;;;;;;;6.43;53.33;100052.75;6704526;29;20302;-79
2024/01/29 06:03:13;;;;;;;9.23;8.10;;;;;;;6.26;53.15;100054.38;6704412;29;20306;-79
2024/01/29 06:06:34;;;;;;;9.93;8.57;;;;;;;6.03;53.72;100063.78;6703123;29;20714;-78
2024/01/29 06:09:56;;;;;;;12.30;9.33;;;;;;;5.62;54.75;100072.16;6704892;29;20841;-79
2024/01/29 06:13:18;;;;;;;10.00;8.77;;;;;;;5.83;55.22;100069.34;6729179;29;20248;-79
2024/01/29 06:16:40;;;;;;;8.70;7.80;;;;;;;5.93;54.45;100062.09;6691333;29;20210;-79
2024/01/29 06:20:03;;;;;;;10.67;8.43;;;;;;;6.02;54.41;100062.06;6678270;29;20353;-78
2024/01/29 06:23:25;;;;;;;11.03;8.80;;;;;;;5.72;54.99;100072.13;6677994;29;20226;-78
2024/01/29 06:26:47;;;;;;;10.17;8.13;;;;;;;5.83;54.90;100056.78;6677368;29;20228;-79
2024/01/29 06:30:09;;;;;;;11.83;9.57;;;;;;;5.52;55.12;100065.09;6696660;29;20358;-78
2024/01/29 06:33:30;;;;;;;12.50;10.97;;;;;;;5.14;56.60;100063.28;6727664;29;20707;-78
2024/01/29 06:36:54;;;;;;;11.07;8.90;;;;;;;4.90;56.76;100064.72;6728220;29;20243;-78
2024/01/29 06:40:16;;;;;;;12.13;8.60;;;;;;;5.16;56.39;100052.47;6729181;29;20805;-78
2024/01/29 06:43:37;;;;;;;10.90;9.10;;;;;;;5.50;56.05;100073.31;6728993;29;20212;-78
2024/01/29 06:46:59;;;;;;;12.47;9.17;;;;;;;5.16;56.56;100082.72;6728547;29;20720;-78
2024/01/29 06:50:20;;;;;;;11.13;9.10;;;;;;;5.07;56.86;100088.91;6719947;29;20892;-78
2024/01/29 06:53:44;;;;;;;12.40;9.03;;;;;;;4.89;57.43;100076.38;6703804;29;20213;-78
2024/01/29 06:57:05;;;;;;;12.37;9.23;;;;;;;4.99;56.79;100083.41;6702375;29;20247;-78
2024/01/29 07:00:27;;;;;;;13.33;10.10;;;;;;;5.20;57.08;100088.63;6703293;29;20766;-78
2024/01/29 07:03:48;;;;;;;16.00;12.47;;;;;;;5.44;55.84;100089.91;6707758;29;20214;-79
2024/01/29 07:07:10;;;;;;;14.37;11.70;;;;;;;5.57;55.61;100074.41;6721458;29;20311;-78
2024/01/29 07:10:33;;;;;;;13.70;10.27;;;;;;;5.41;56.01;100084.84;6708316;29;20684;-78
2024/01/29 07:13:54;;;;;;;15.50;11.60;;;;;;;5.24;56.38;100087.38;6708336;29;20301;-78
2024/01/29 07:17:16;;;;;;;17.17;12.03;;;;;;;5.50;55.93;100094.69;6722834;29;20224;-78
2024/01/29 07:20:40;;;;;;;15.30;11.27;;;;;;;5.41;56.09;100083.97;6733612;29;20309;-78
2024/01/29 07:24:01;;;;;;;16.67;12.37;;;;;;;5.56;55.79;100103.97;6734735;29;20717;-77
2024/01/29 07:27:24;;;;;;;16.30;11.00;;;;;;;5.48;55.55;100107.34;6733321;29;20239;-79
2024/01/29 07:30:46;;;;;;;15.47;10.53;;;;;;;5.29;56.14;100106.50;6733143;29;20236;-78
2024/01/29 07:34:07;;;;;;;14.37;11.00;;;;;;;5.07;56.94;100115.63;6731918;29;20295;-78
2024/01/29 07:37:29;;;;;;;13.20;11.60;;;;;;;5.39;56.67;100108.22;6732622;29;20218;-78
2024/01/29 07:40:50;;;;;;;16.90;12.20;;;;;;;5.54;56.27;100119.34;6736112;29;20230;-78
2024/01/29 07:44:13;;;;;;;13.50;11.07;;;;;;;5.27;56.86;100119.19;6733954;29;20567;-78
2024/01/29 07:47:35;;;;;;;11.53;9.90;;;;;;;5.35;56.68;100120.16;6727193;29;20702;-77
2024/01/29 07:50:56;;;;;;;14.37;10.00;;;;;;;5.65;56.00;100130.72;6707276;29;20232;-78
2024/01/29 07:54:18;;;;;;;11.43;9.87;;;;;;;5.77;55.56;100120.72;6724583;29;20210;-80
2024/01/29 07:57:39;;;;;;;10.63;9.20;;;;;;;5.87;55.30;100118.88;6732075;29;20305;-78
2024/01/29 08:01:02;;;;;;;20.60;12.87;;;;;;;5.98;55.03;100126.75;6732986;29;20347;-78
2024/01/29 08:04:24;;;;;;;17.07;11.97;;;;;;;6.13;55.09;100128.84;6718513;29;20266;-78
2024/01/29 08:07:45;;;;;;;17.10;11.83;;;;;;;6.14;54.53;100127.84;6706975;29;20311;-78
2024/01/29 08:11:07;;;;;;;18.77;12.73;;;;;;;6.20;54.42;100118.41;6711414;29;20739;-78
2024/01/29 08:14:28;;;;;;;16.73;11.83;;;;;;;6.29;54.45;100134.44;6732413;29;20256;-79
2024/01/29 08:17:51;;;;;;;14.13;10.53;;;;;;;6.35;54.14;100135.66;6717996;29;20220;-78
2024/01/29 08:21:12;;;;;;;13.17;11.17;;;;;;;6.22;54.52;100117.25;6706588;29;20330;-78
2024/01/29 08:24:34;;;;;;;12.13;10.50;;;;;;;6.38;54.26;100138.06;6706624;29;20242;-78
2024/01/29 08:27:56;;;;;;;13.67;10.90;;;;;;;6.06;55.25;100137.56;6706317;29;20209;-78
2024/01/29 08:31:17;;;;;;;14.30;10.30;;;;;;;6.45;55.09;100137.34;6706427;29;20237;-78
2024/01/29 08:34:40;;;;;;;11.63;9.27;;;;;;;6.44;54.80;100149.06;6705731;29;20269;-78
2024/01/29 08:38:02;;;;;;;10.67;9.57;;;;;;;6.51;54.76;100150.16;6708273;29;20214;-79
2024/01/29 08:41:24;;;;;;;10.67;9.57;;;;;;;6.69;54.37;100132.31;6733312;29;20216;-80
2024/01/29 08:44:46;;;;;;;11.17;9.17;;;;;;;8.00;51.86;100132.44;6737428;29;20326;-80
2024/01/29 08:48:07;;;;;;;14.40;9.63;;;;;;;11.28;43.48;100122.88;6714476;29;20205;-79
2024/01/29 08:51:30;;;;;;;16.27;8.90;;;;;;;12.98;39.62;100105.78;6710616;29;20246;-79
2024/01/29 08:54:52;;;;;;;13.77;9.13;;;;;;;13.48;38.01;100112.03;6712182;29;20662;-79
2024/01/29 08:58:14;;;;;;;10.10;7.57;;;;;;;14.36;36.22;100116.00;6735015;29;20264;-80
2024/01/29 09:01:35;;;;;;;10.07;7.57;;;;;;;14.33;35.80;100116.38;6717628;29;20274;-80
2024/01/29 09:04:56;;;;;;;12.50;9.20;;;;;;;14.30;36.26;100124.06;6729902;29;20236;-81
2024/01/29 09:08:19;;;;;;;10.40;7.43;;;;;;;13.50;37.70;100139.75;6711799;29;20253;-80
2024/01/29 09:11:41;;;;;;;11.03;8.47;;;;;;;13.04;39.08;100138.34;6711516;29;20296;-78
2024/01/29 09:15:04;;;;;;;9.77;8.23;;;;;;;11.98;41.05;100138.75;6706857;29;20569;-79
2024/01/29 09:18:26;;;;;;;10.10;8.10;;;;;;;11.38;42.20;100154.03;6723197;29;20243;-78
2024/01/29 09:21:51;;;;;;;9.50;8.50;;;;;;;10.59;44.38;100150.66;6732071;29;20255;-78
2024/01/29 09:25:13;;;;;;;11.23;8.77;;;;;;;10.31;45.30;100167.38;6731915;29;20632;-77
2024/01/29 09:28:37;;;;;;;10.93;8.20;;;;;;;9.98;46.64;100176.47;6717215;29;20320;-78
2024/01/29 09:31:59;;;;;;;13.30;8.43;;;;;;;10.04;46.88;100173.13;6706106;29;20336;-78
2024/01/29 09:35:20;;;;;;;9.97;8.03;;;;;;;10.24;46.59;100177.16;6705639;29;20738;-78
2024/01/29 09:38:42;;;;;;;10.43;8.47;;;;;;;10.27;46.17;100158.78;6705480;29;20337;-78
2024/01/29 09:42:06;;;;;;;10.40;8.00;;;;;;;10.30;46.01;100171.09;6706010;29;20257;-79
2024/01/29 09:45:29;;;;;;;9.57;7.97;;;;;;;10.62;45.84;100179.16;6705412;29;20244;-78
2024/01/29 09:48:50;;;;;;;12.57;8.77;;;;;;;11.07;45.72;100172.06;6709105;29;20381;-79
2024/01/29 09:52:13;;;;;;;9.77;7.97;;;;;;;11.30;44.48;100145.97;6708337;29;20249;-79
2024/01/29 09:55:34;;;;;;;10.93;7.93;;;;;;;11.83;43.32;100173.03;6716581;29;20660;-79
2024/01/29 09:58:57;;;;;;;8.90;7.53;;;;;;;12.25;42.39;100184.16;6731641;29;20244;-78
2024/01/29 10:02:19;;;;;;;10.77;8.27;;;;;;;12.35;42.15;100167.69;6744255;29;20269;-79
2024/01/29 10:05:41;;;;;;;9.70;7.60;;;;;;;12.13;42.35;100172.09;6736546;29;20292;-78
2024/01/29 10:09:04;;;;;;;9.73;7.63;;;;;;;12.26;43.14;100171.47;6718119;29;20606;-79
2024/01/29 10:12:26;;;;;;;11.77;7.87;;;;;;;11.74;43.31;100179.50;6723369;29;20207;-79
2024/01/29 10:15:50;;;;;;;9.93;8.03;;;;;;;11.87;43.38;100177.03;6706890;29;20209;-78
2024/01/29 10:19:12;;;;;;;17.50;12.50;;;;;;;12.04;43.40;100184.00;6709172;29;20328;-79
2024/01/29 10:22:34;;;;;;;11.73;8.90;;;;;;;12.28;43.02;100167.56;6704972;29;20807;-79
2024/01/29 10:25:56;;;;;;;10.37;7.80;;;;;;;12.44;42.22;100172.81;6719386;29;20229;-82
2024/01/29 10:29:18;;;;;;;8.60;7.80;;;;;;;12.89;41.46;100155.59;6705170;29;20229;-79
2024/01/29 10:32:40;;;;;;;10.13;7.70;;;;;;;13.26;40.93;100147.38;6705283;29;20693;-79
2024/01/29 10:36:02;;;;;;;9.40;7.10;;;;;;;12.62;41.93;100156.25;6704764;29;20741;-78
2024/01/29 10:39:24;;;;;;;8.93;7.10;;;;;;;12.74;42.32;100127.72;6691606;29;20233;-79
2024/01/29 10:42:49;;;;;;;11.43;7.87;;;;;;;13.41;41.28;100151.75;6717062;29;20588;-80
2024/01/29 10:46:11;;;;;;;10.00;7.93;;;;;;;14.10;40.27;100142.03;6705168;29;20235;-80
2024/01/29 10:49:35;;;;;;;11.53;7.87;;;;;;;14.02;39.47;100125.88;6712063;29;20315;-79
2024/01/29 10:52:57;;;;;;;15.07;8.87;;;;;;;14.41;39.86;100143.38;6713170;29;20208;-79
2024/01/29 10:56:19;;;;;;;7.80;6.83;;;;;;;14.29;38.72;100142.22;6704718;29;20254;-80
2024/01/29 10:59:41;;;;;;;8.90;6.73;;;;;;;14.36;39.24;100145.84;6705084;29;20239;-79
2024/01/29 11:03:05;;;;;;;13.57;9.77;;;;;;;14.39;39.76;100144.63;6706878;29;20247;-80
2024/01/29 11:06:33;;;;;;;11.63;8.87;;;;;;;14.55;38.73;100145.16;6705315;29;20340;-79
2024/01/29 11:10:00;;;;;;;12.37;6.77;;;;;;;14.81;38.80;100148.03;6706328;29;20249;-80
2024/01/29 11:13:22;;;;;;;9.63;7.30;;;;;;;15.02;38.20;100142.53;6706161;29;20236;-80
2024/01/29 11:16:43;;;;;;;7.60;6.23;;;;;;;15.03;38.03;100136.03;6704940;29;20297;-80
2024/01/29 11:20:11;;;;;;;11.03;6.37;;;;;;;15.07;37.51;100110.16;6720265;29;20270;-79
2024/01/29 11:23:42;;;;;;;7.60;6.30;;;;;;;15.19;36.80;100124.00;6705589;29;20284;-79
2024/01/29 11:27:08;;;;;;;6.83;5.93;;;;;;;15.23;36.96;100109.78;6719984;29;20234;-80
2024/01/29 11:30:29;;;;;;;8.00;5.93;;;;;;;15.41;36.57;100098.41;6717642;29;20245;-80
2024/01/29 11:33:51;;;;;;;6.83;5.63;;;;;;;15.48;36.25;100108.25;6717264;29;20218;-80
2024/01/29 11:37:12;;;;;;;6.20;4.97;;;;;;;16.51;34.35;100094.97;6713103;29;20241;-80
2024/01/29 11:40:36;;;;;;;5.90;4.47;;;;;;;16.62;32.96;100086.97;6717171;29;20379;-80
2024/01/29 11:43:59;;;;;;;4.03;3.63;;;;;;;16.95;33.11;100086.88;6723014;29;20303;-79
2024/01/29 11:47:22;;;;;;;5.70;3.93;;;;;;;17.98;30.64;100073.75;6705029;29;20329;-80
2024/01/29 11:50:45;;;;;;;3.97;3.57;;;;;;;18.17;30.92;100080.94;6718636;29;20327;-81
2024/01/29 11:54:07;;;;;;;5.23;3.03;;;;;;;18.61;28.77;100067.94;6726525;29;20710;-80
2024/01/29 11:57:32;;;;;;;3.73;3.03;;;;;;;18.67;28.70;100058.84;6717101;29;20349;-80
2024/01/29 12:00:53;;;;;;;4.97;2.90;;;;;;;18.99;28.21;100054.06;6723899;29;20247;-79
2024/01/29 12:04:15;;;;;;;3.30;3.00;;;;;;;18.91;28.10;100049.75;6715241;29;20250;-80
2024/01/29 12:07:37;;;;;;;6.03;3.00;;;;;;;19.06;27.46;100057.56;6714392;29;20244;-79
2024/01/29 12:11:00;;;;;;;4.10;3.20;;;;;;;19.30;28.08;100045.69;6714368;29;20323;-79
2024/01/29 12:14:23;;;;;;;4.87;2.87;;;;;;;19.36;26.99;100036.56;6698414;29;20216;-80
2024/01/29 12:17:46;;;;;;;3.00;2.70;;;;;;;19.65;27.57;100036.56;6713798;29;20258;-80
2024/01/29 12:21:07;;;;;;;4.67;3.07;;;;;;;19.69;27.43;100036.94;6716383;29;20383;-79
2024/01/29 12:24:29;;;;;;;3.47;2.97;;;;;;;19.45;27.56;100033.28;6708660;29;20756;-79
2024/01/29 12:27:51;;;;;;;3.67;3.10;;;;;;;19.17;27.74;100015.78;6714393;29;20269;-79
2024/01/29 12:31:14;;;;;;;3.90;3.00;;;;;;;19.52;27.69;100012.13;6713735;29;20233;-79
2024/01/29 12:34:42;;;;;;;3.30;3.00;;;;;;;19.87;26.85;100032.19;6709167;29;20213;-80
2024/01/29 12:38:05;;;;;;;3.07;2.80;;;;;;;19.95;26.39;100031.88;6709064;29;20669;-80
2024/01/29 12:41:33;;;;;;;3.63;3.00;;;;;;;19.54;27.03;100023.69;6709239;29;20883;-80
2024/01/29 12:44:55;;;;;;;2.87;2.60;;;;;;;19.84;26.96;100020.88;6732108;29;20223;-79
2024/01/29 12:48:19;;;;;;;3.57;3.27;;;;;;;20.19;26.19;99991.66;6714981;29;20237;-80
2024/01/29 12:51:42;;;;;;;3.00;2.80;;;;;;;20.23;26.14;99987.38;6708797;29;20205;-79
2024/01/29 12:55:04;;;;;;;4.20;2.80;;;;;;;20.16;26.39;100006.66;6710071;29;20216;-79
2024/01/29 12:58:26;;;;;;;4.70;3.20;;;;;;;19.90;27.04;99998.88;6708763;29;20281;-80
2024/01/29 13:01:48;;;;;;;5.27;3.00;;;;;;;20.18;26.83;99998.22;6710773;29;20217;-79
2024/01/29 13:05:10;;;;;;;3.73;3.07;;;;;;;20.13;27.24;99990.72;6697542;29;20353;-79
2024/01/29 13:08:32;;;;;;;4.90;3.13;;;;;;;20.21;27.37;99982.13;6709170;29;20261;-79
2024/01/29 13:11:54;;;;;;;3.87;3.30;;;;;;;20.46;26.60;99979.97;6709546;29;20254;-78
2024/01/29 13:15:16;;;;;;;3.33;3.03;;;;;;;20.50;26.65;99972.94;6705106;29;20213;-78
2024/01/29 13:18:38;;;;;;;3.47;3.13;;;;;;;20.31;26.61;99974.16;6684132;29;20318;-79
2024/01/29 13:22:01;;;;;;;2.93;2.60;;;;;;;19.88;26.30;99978.28;6704607;29;20318;-79
2024/01/29 13:25:23;;;;;;;2.20;2.00;;;;;;;20.32;24.06;99966.75;6720913;29;20331;-79
2024/01/29 13:28:44;;;;;;;2.83;2.20;;;;;;;20.03;24.61;99974.00;6710077;29;20292;-79
2024/01/29 13:32:06;;;;;;;3.20;2.10;;;;;;;20.04;24.50;99964.72;6726641;29;20641;-80
2024/01/29 13:35:28;;;;;;;2.10;1.90;;;;;;;19.59;23.91;99973.72;6722717;29;20252;-79
2024/01/29 13:38:50;;;;;;;2.40;2.27;;;;;;;19.28;25.15;99968.53;6695500;29;20371;-79
2024/01/29 13:42:12;;;;;;;2.67;2.30;;;;;;;20.19;24.88;99969.75;6682576;29;20333;-78
2024/01/29 13:45:33;;;;;;;2.77;2.30;;;;;;;20.55;24.78;99961.25;6682949;29;20298;-80
2024/01/29 13:48:55;;;;;;;2.80;2.30;;;;;;;20.60;24.89;99959.47;6681516;29;20264;-79
2024/01/29 13:52:16;;;;;;;2.50;2.30;;;;;;;20.25;24.90;99952.38;6708601;29;20240;-79
2024/01/29 13:55:39;;;;;;;2.33;2.13;;;;;;;19.42;25.91;99959.91;6706877;29;20650;-80
2024/01/29 13:59:01;;;;;;;2.50;2.30;;;;;;;18.97;26.30;99958.63;6706589;29;20308;-79
2024/01/29 14:02:22;;;;;;;3.27;2.37;;;;;;;19.13;26.57;99938.00;6705435;29;20299;-80
2024/01/29 14:05:44;;;;;;;2.83;2.60;;;;;;;19.66;26.49;99966.22;6707686;29;20304;-79
2024/01/29 14:09:05;;;;;;;3.00;2.70;;;;;;;19.36;27.21;99955.34;6704678;29;20285;-80
2024/01/29 14:12:28;;;;;;;2.53;2.20;;;;;;;19.46;26.97;99969.28;6706401;29;20708;-78
2024/01/29 14:15:50;;;;;;;2.73;2.53;;;;;;;19.12;27.47;99964.53;6704547;29;20652;-80
2024/01/29 14:19:13;;;;;;;3.10;2.80;;;;;;;19.32;27.36;99961.50;6702902;29;20716;-78
2024/01/29 14:22:34;;;;;;;4.27;2.27;;;;;;;19.54;27.17;99962.63;6707720;29;20360;-78
2024/01/29 14:25:56;;;;;;;2.70;2.50;;;;;;;19.52;27.41;99965.59;6705964;29;20308;-79
2024/01/29 14:29:19;;;;;;;2.93;2.50;;;;;;;19.31;27.99;99960.69;6703065;29;20315;-78
2024/01/29 14:32:40;;;;;;;3.27;2.73;;;;;;;19.21;28.54;99970.53;6702658;29;20208;-78
2024/01/29 14:36:02;;;;;;;4.20;3.13;;;;;;;19.10;29.06;99965.81;6702793;29;20259;-78
2024/01/29 14:39:24;;;;;;;5.27;3.00;;;;;;;19.13;28.89;99973.53;6701934;29;20229;-78
2024/01/29 14:42:46;;;;;;;3.23;2.73;;;;;;;19.07;28.66;99961.63;6702844;29;20274;-78
2024/01/29 14:46:12;;;;;;;4.33;2.97;;;;;;;18.89;29.35;99961.69;6702517;29;20220;-78
2024/01/29 14:49:33;;;;;;;3.23;2.93;;;;;;;19.00;28.79;99971.84;6701433;29;20237;-78
2024/01/29 14:52:55;;;;;;;5.03;3.00;;;;;;;18.78;29.60;99958.88;6702781;29;20303;-78
2024/01/29 14:56:16;;;;;;;4.83;3.00;;;;;;;18.88;29.47;99970.09;6702875;29;20247;-79
2024/01/29 14:59:38;;;;;;;3.40;2.60;;;;;;;18.87;30.43;99966.53;6703281;29;20319;-78
2024/01/29 15:03:01;;;;;;;5.50;3.03;;;;;;;19.00;30.84;99962.78;6703318;29;20240;-78
2024/01/29 15:06:24;;;;;;;6.97;3.03;;;;;;;18.84;31.80;99966.16;6703082;29;20722;-78
2024/01/29 15:09:45;;;;;;;5.50;3.13;;;;;;;18.68;32.90;99970.34;6703170;29;20233;-78
2024/01/29 15:13:07;;;;;;;4.67;2.77;;;;;;;18.50;33.09;99972.25;6702818;29;20365;-78
2024/01/29 15:16:28;;;;;;;8.90;5.10;;;;;;;18.09;34.63;99963.84;6702867;29;20219;-79
2024/01/29 15:19:51;;;;;;;12.27;7.07;;;;;;;17.66;36.34;99965.72;6703246;29;20231;-78
2024/01/29 15:23:13;;;;;;;9.90;7.63;;;;;;;17.72;36.75;99978.44;6702802;29;20275;-78
2024/01/29 15:26:34;;;;;;;10.33;7.03;;;;;;;17.56;36.19;99966.22;6705568;29;20248;-77
2024/01/29 15:29:56;;;;;;;15.30;7.57;;;;;;;17.18;37.49;99980.91;6707967;29;20290;-78
2024/01/29 15:33:18;;;;;;;12.73;7.57;;;;;;;17.32;37.67;99979.75;6707300;29;20216;-78
2024/01/29 15:36:41;;;;;;;12.47;7.77;;;;;;;17.04;38.03;99965.72;6707805;29;20209;-77
2024/01/29 15:40:03;;;;;;;12.77;8.20;;;;;;;17.07;37.90;99974.28;6707743;29;20367;-77
2024/01/29 15:43:25;;;;;;;9.33;6.83;;;;;;;16.57;39.43;99969.69;6707574;29;20216;-77